Time;durP1;ratioP1;P1;durP2;ratioP2;P2;SDS_P1;SDS_P2;PMS_P1;PMS_P2;Temp;Humidity;BMP_temperature;BMP_pressure;BME280_temperature;BME280_humidity;BME280_pressure;Samples;Min_cycle;Max_cycle;Signal;HPM_P1;HPM_P2
2023/12/07 00:02:06;;;;;;;;;;;102.80;2227.20;;;;;;5080032;28;19912;-73
2023/12/07 00:04:31;;;;;;;;;;;102.80;2227.20;;;;;;5110210;27;19919;-73
2023/12/07 00:06:57;;;;;;;;;;;102.70;2227.20;;;;;;5099096;27;19967;-74
2023/12/07 00:09:22;;;;;;;;;;;102.70;2227.20;;;;;;5068517;28;19913;-73
2023/12/07 00:11:48;;;;;;;;;;;102.80;2227.20;;;;;;5106839;27;19995;-74
2023/12/07 00:14:14;;;;;;;;;;;102.80;2227.20;;;;;;5065967;28;20357;-74
2023/12/07 00:16:40;;;;;;;;;;;102.80;2227.20;;;;;;5068924;28;19916;-74
2023/12/07 00:19:05;;;;;;;;;;;102.80;2227.20;;;;;;5085308;28;19969;-74
2023/12/07 00:21:31;;;;;;;;;;;102.70;2227.20;;;;;;5074652;28;19912;-74
2023/12/07 00:23:56;;;;;;;;;;;102.80;2227.20;;;;;;5069547;28;19927;-74
2023/12/07 00:26:22;;;;;;;;;;;102.80;2227.20;;;;;;5072731;28;20328;-74
2023/12/07 00:28:48;;;;;;;;;;;102.80;2227.20;;;;;;5068352;28;19919;-73
2023/12/07 00:31:13;;;;;;;;;;;102.90;2227.20;;;;;;5074555;28;19908;-73
2023/12/07 00:33:39;;;;;;;;;;;102.90;2227.20;;;;;;5095530;27;19919;-74
2023/12/07 00:36:05;;;;;;;;;;;102.80;2227.20;;;;;;5066400;28;19912;-73
2023/12/07 00:38:32;;;;;;;;;;;102.80;2227.20;;;;;;5065030;28;20337;-73
2023/12/07 00:40:57;;;;;;;;;;;102.90;2227.20;;;;;;5068959;28;19913;-73
2023/12/07 00:43:23;;;;;;;;;;;103.00;2227.20;;;;;;5073392;28;19913;-74
2023/12/07 00:45:49;;;;;;;;;;;102.90;2227.20;;;;;;5073821;28;20406;-73
2023/12/07 00:48:14;;;;;;;;;;;102.90;2227.20;;;;;;5072678;28;19916;-74
2023/12/07 00:50:40;;;;;;;;;;;102.80;2227.20;;;;;;5104566;28;19913;-74
2023/12/07 00:53:05;;;;;;;;;;;102.70;2227.20;;;;;;5059631;28;19991;-74
2023/12/07 00:55:31;;;;;;;;;;;102.80;2227.20;;;;;;5073841;28;19950;-74
2023/12/07 00:57:57;;;;;;;;;;;102.70;2227.20;;;;;;5073692;28;19983;-74
2023/12/07 01:00:22;;;;;;;;;;;102.80;2227.20;;;;;;5073665;28;20320;-74
2023/12/07 01:02:48;;;;;;;;;;;102.80;2227.20;;;;;;5073794;28;19908;-74
2023/12/07 01:05:13;;;;;;;;;;;102.90;2227.20;;;;;;5072118;28;19909;-73
2023/12/07 01:07:39;;;;;;;;;;;103.00;2227.20;;;;;;5072379;28;19995;-74
2023/12/07 01:10:05;;;;;;;;;;;103.00;2227.20;;;;;;5072141;28;19915;-74
2023/12/07 01:12:31;;;;;;;;;;;103.00;2227.20;;;;;;5073712;28;19909;-74
2023/12/07 01:14:57;;;;;;;;;;;103.00;2227.20;;;;;;5072106;28;19985;-74
2023/12/07 01:17:22;;;;;;;;;;;103.00;2227.20;;;;;;5073370;28;19925;-73
2023/12/07 01:19:48;;;;;;;;;;;103.00;2227.20;;;;;;5073242;28;20368;-73
2023/12/07 01:22:13;;;;;;;;;;;103.00;2227.20;;;;;;5106147;28;19954;-74
2023/12/07 01:24:39;;;;;;;;;;;103.00;2227.20;;;;;;5073649;28;19962;-74
2023/12/07 01:27:05;;;;;;;;;;;102.90;2227.20;;;;;;5072106;28;19916;-74
2023/12/07 01:29:30;;;;;;;;;;;102.90;2227.20;;;;;;5072133;28;19922;-74
2023/12/07 01:31:56;;;;;;;;;;;102.90;2227.20;;;;;;5073447;28;20356;-74
2023/12/07 01:34:21;;;;;;;;;;;103.00;2227.20;;;;;;5089127;28;19909;-74
2023/12/07 01:36:48;;;;;;;;;;;103.00;2227.20;;;;;;5073323;28;19934;-74
2023/12/07 01:39:13;;;;;;;;;;;103.00;2227.20;;;;;;5071723;28;19939;-74
2023/12/07 01:41:39;;;;;;;;;;;103.00;2227.20;;;;;;5073482;28;19912;-74
2023/12/07 01:44:05;;;;;;;;;;;102.90;2227.20;;;;;;5073055;28;20018;-73
2023/12/07 01:46:32;;;;;;;;;;;103.00;2227.20;;;;;;5073313;28;19934;-73
2023/12/07 01:48:57;;;;;;;;;;;103.00;2227.20;;;;;;5073058;28;19920;-73
2023/12/07 01:51:23;;;;;;;;;;;103.00;2227.20;;;;;;5073078;28;20356;-73
2023/12/07 01:53:49;;;;;;;;;;;102.90;2227.20;;;;;;5071879;28;19915;-74
2023/12/07 01:56:15;;;;;;;;;;;102.90;2227.20;;;;;;5073221;28;19935;-73
2023/12/07 01:58:41;;;;;;;;;;;103.00;2227.20;;;;;;5072977;28;19975;-74
2023/12/07 02:01:07;;;;;;;;;;;103.00;2227.20;;;;;;5075972;28;19908;-74
2023/12/07 02:03:33;;;;;;;;;;;103.00;2227.20;;;;;;5076772;28;19934;-74
2023/12/07 02:05:58;;;;;;;;;;;103.00;2227.20;;;;;;5076885;28;19909;-73
2023/12/07 02:08:24;;;;;;;;;;;103.10;2227.20;;;;;;5075343;28;19944;-74
2023/12/07 02:10:51;;;;;;;;;;;103.00;2227.20;;;;;;5076775;28;19916;-73
2023/12/07 02:13:17;;;;;;;;;;;103.00;2227.20;;;;;;5076530;28;19915;-74
2023/12/07 02:15:43;;;;;;;;;;;102.90;2227.20;;;;;;5076970;28;19947;-74
2023/12/07 02:18:20;;;;;;;;;;;103.00;2227.20;;;;;;5091037;28;19968;-74
2023/12/07 02:20:51;;;;;;;;;;;103.00;2227.20;;;;;;5096888;28;19944;-74
2023/12/07 02:23:17;;;;;;;;;;;103.10;2227.20;;;;;;5078240;28;20061;-74
2023/12/07 02:26:07;;;;;;;;;;;103.10;2227.20;;;;;;5096457;28;20376;-74
2023/12/07 02:28:33;;;;;;;;;;;103.10;2227.20;;;;;;5096846;28;19959;-74
2023/12/07 02:30:59;;;;;;;;;;;103.00;2227.20;;;;;;5096668;28;20333;-74
2023/12/07 02:33:24;;;;;;;;;;;103.00;2227.20;;;;;;5078311;28;19908;-73
2023/12/07 02:35:50;;;;;;;;;;;103.00;2227.20;;;;;;5078074;28;20352;-74
2023/12/07 02:38:16;;;;;;;;;;;103.00;2227.20;;;;;;5096521;28;19924;-74
2023/12/07 02:40:44;;;;;;;;;;;103.10;2227.20;;;;;;5096332;28;19908;-74
2023/12/07 02:43:10;;;;;;;;;;;103.10;2227.20;;;;;;5077702;28;20138;-74
2023/12/07 02:45:36;;;;;;;;;;;103.10;2227.20;;;;;;5096201;28;19908;-74
2023/12/07 02:48:01;;;;;;;;;;;103.00;2227.20;;;;;;5096180;28;19916;-74
2023/12/07 02:50:27;;;;;;;;;;;103.00;2227.20;;;;;;5095645;28;19955;-74
2023/12/07 02:52:53;;;;;;;;;;;103.00;2227.20;;;;;;5096083;28;20313;-74
2023/12/07 02:55:18;;;;;;;;;;;103.10;2227.20;;;;;;5096098;28;20363;-74
2023/12/07 02:57:45;;;;;;;;;;;103.10;2227.20;;;;;;5096113;28;19916;-74
2023/12/07 03:00:13;;;;;;;;;;;103.10;2227.20;;;;;;5095804;28;20363;-74
2023/12/07 03:02:39;;;;;;;;;;;103.20;2227.20;;;;;;5096204;28;19912;-74
2023/12/07 03:05:06;;;;;;;;;;;103.10;2227.20;;;;;;5095653;28;20017;-74
2023/12/07 03:07:32;;;;;;;;;;;103.10;2227.20;;;;;;5077452;28;19922;-73
2023/12/07 03:09:58;;;;;;;;;;;103.20;2227.20;;;;;;5095760;28;19909;-74
2023/12/07 03:12:23;;;;;;;;;;;103.20;2227.20;;;;;;5095621;28;20261;-72
2023/12/07 03:14:49;;;;;;;;;;;103.20;2227.20;;;;;;5095632;28;20415;-72
2023/12/07 03:17:15;;;;;;;;;;;103.20;2227.20;;;;;;5095490;28;19924;-73
2023/12/07 03:19:41;;;;;;;;;;;103.30;2227.20;;;;;;5077327;28;20386;-73
2023/12/07 03:22:06;;;;;;;;;;;103.20;2227.20;;;;;;5095442;28;19916;-72
2023/12/07 03:24:36;;;;;;;;;;;103.30;2227.20;;;;;;5095734;28;20249;-73
2023/12/07 03:27:02;;;;;;;;;;;103.20;2227.20;;;;;;5095434;28;19931;-73
2023/12/07 03:29:27;;;;;;;;;;;128.00;2252.80;;;;;;5095457;28;20360;-73
2023/12/07 03:31:53;;;;;;;;;;;103.30;2227.20;;;;;;5095352;28;19908;-74
2023/12/07 03:34:18;;;;;;;;;;;128.00;2252.80;;;;;;5095175;28;19912;-73
2023/12/07 03:36:47;;;;;;;;;;;128.00;2252.80;;;;;;5095337;28;20336;-74
2023/12/07 03:39:14;;;;;;;;;;;103.30;2227.20;;;;;;5094989;28;19978;-73
2023/12/07 03:41:39;;;;;;;;;;;103.20;2227.20;;;;;;5077332;28;20330;-74
2023/12/07 03:44:05;;;;;;;;;;;103.30;2227.20;;;;;;5095061;28;19908;-72
2023/12/07 03:46:30;;;;;;;;;;;103.30;2227.20;;;;;;5095043;28;19919;-73
2023/12/07 03:48:56;;;;;;;;;;;103.20;2227.20;;;;;;5094765;28;19908;-74
2023/12/07 03:51:22;;;;;;;;;;;103.30;2227.20;;;;;;5094559;28;19908;-73
2023/12/07 03:53:47;;;;;;;;;;;103.30;2227.20;;;;;;5094652;28;19996;-73
2023/12/07 03:56:25;;;;;;;;;;;103.20;2227.20;;;;;;5094970;28;19916;-73
2023/12/07 03:58:50;;;;;;;;;;;103.20;2227.20;;;;;;5076435;28;20414;-73
2023/12/07 04:01:16;;;;;;;;;;;103.20;2227.20;;;;;;5094875;28;19908;-73
2023/12/07 04:03:42;;;;;;;;;;;103.20;2227.20;;;;;;5094858;28;19908;-73
2023/12/07 04:06:07;;;;;;;;;;;103.20;2227.20;;;;;;5066244;28;19936;-73
2023/12/07 04:08:33;;;;;;;;;;;103.30;2227.20;;;;;;5092802;28;19908;-73
2023/12/07 04:10:59;;;;;;;;;;;103.20;2227.20;;;;;;5094564;28;19994;-73
2023/12/07 04:13:24;;;;;;;;;;;103.20;2227.20;;;;;;5094181;28;19908;-73
2023/12/07 04:15:50;;;;;;;;;;;103.20;2227.20;;;;;;5094495;28;19916;-73
2023/12/07 04:18:16;;;;;;;;;;;103.20;2227.20;;;;;;5093844;28;20388;-74
2023/12/07 04:20:41;;;;;;;;;;;103.20;2227.20;;;;;;5094697;28;19908;-73
2023/12/07 04:23:07;;;;;;;;;;;103.20;2227.20;;;;;;5093515;28;19909;-73
2023/12/07 04:25:32;;;;;;;;;;;103.20;2227.20;;;;;;5094538;28;20291;-73
2023/12/07 04:27:59;;;;;;;;;;;103.20;2227.20;;;;;;5094346;28;19914;-72
2023/12/07 04:30:24;;;;;;;;;;;103.10;2227.20;;;;;;5094110;28;19912;-72
2023/12/07 04:32:50;;;;;;;;;;;103.20;2227.20;;;;;;5094117;28;19986;-73
2023/12/07 04:35:16;;;;;;;;;;;103.20;2227.20;;;;;;5094064;28;20360;-72
2023/12/07 04:37:41;;;;;;;;;;;103.30;2227.20;;;;;;5093960;28;19923;-73
2023/12/07 04:40:07;;;;;;;;;;;103.30;2227.20;;;;;;5094347;28;19908;-72
2023/12/07 04:42:33;;;;;;;;;;;103.30;2227.20;;;;;;5093837;28;19951;-73
2023/12/07 04:44:58;;;;;;;;;;;128.00;2252.80;;;;;;5093884;28;19915;-73
2023/12/07 04:47:24;;;;;;;;;;;128.00;2252.80;;;;;;5075532;28;19923;-72
2023/12/07 04:49:50;;;;;;;;;;;128.00;2252.80;;;;;;5093757;28;19916;-72
2023/12/07 04:52:15;;;;;;;;;;;128.10;2252.80;;;;;;5093639;28;19969;-73
2023/12/07 04:54:41;;;;;;;;;;;128.00;2252.80;;;;;;5094077;28;19995;-72
2023/12/07 04:57:07;;;;;;;;;;;128.10;2252.80;;;;;;5080468;28;19908;-72
2023/12/07 04:59:32;;;;;;;;;;;128.10;2252.80;;;;;;5094011;28;19908;-72
2023/12/07 05:01:58;;;;;;;;;;;128.20;2252.80;;;;;;5093703;28;19953;-74
2023/12/07 05:04:24;;;;;;;;;;;128.10;2252.80;;;;;;5094058;28;19908;-73
2023/12/07 05:06:49;;;;;;;;;;;128.10;2252.80;;;;;;5093747;28;19914;-73
2023/12/07 05:09:15;;;;;;;;;;;128.10;2252.80;;;;;;5093554;28;19909;-73
2023/12/07 05:11:41;;;;;;;;;;;128.20;2252.80;;;;;;5075266;28;19977;-73
2023/12/07 05:14:07;;;;;;;;;;;128.20;2252.80;;;;;;5075607;28;19915;-72
2023/12/07 05:16:32;;;;;;;;;;;128.20;2252.80;;;;;;5075155;28;19908;-72
2023/12/07 05:18:58;;;;;;;;;;;128.10;2252.80;;;;;;5093586;28;20363;-73
2023/12/07 05:21:24;;;;;;;;;;;128.10;2252.80;;;;;;5093270;28;20003;-73
2023/12/07 05:23:50;;;;;;;;;;;128.00;2252.80;;;;;;5093444;28;20336;-73
2023/12/07 05:26:15;;;;;;;;;;;128.10;2252.80;;;;;;5089517;28;19952;-73
2023/12/07 05:28:41;;;;;;;;;;;128.10;2252.80;;;;;;5066150;28;19908;-73
2023/12/07 05:31:07;;;;;;;;;;;128.00;2252.80;;;;;;5093423;28;20364;-73
2023/12/07 05:33:33;;;;;;;;;;;103.30;2227.20;;;;;;5093560;28;19908;-72
2023/12/07 05:35:59;;;;;;;;;;;103.20;2227.20;;;;;;5066270;28;19966;-73
2023/12/07 05:38:25;;;;;;;;;;;103.20;2227.20;;;;;;5046734;28;19924;-72
2023/12/07 05:40:51;;;;;;;;;;;103.20;2227.20;;;;;;5061680;28;19912;-72
2023/12/07 05:43:16;;;;;;;;;;;103.20;2227.20;;;;;;5059386;28;19913;-73
2023/12/07 05:45:42;;;;;;;;;;;103.20;2227.20;;;;;;5060773;28;19999;-73
2023/12/07 05:48:07;;;;;;;;;;;103.20;2227.20;;;;;;5054747;28;19942;-71
2023/12/07 05:50:33;;;;;;;;;;;103.20;2227.20;;;;;;5049178;28;20365;-73
2023/12/07 05:52:59;;;;;;;;;;;103.20;2227.20;;;;;;5064008;28;19943;-72
2023/12/07 05:55:25;;;;;;;;;;;103.30;2227.20;;;;;;5049107;28;19920;-73
2023/12/07 05:57:51;;;;;;;;;;;103.20;2227.20;;;;;;5042978;28;19921;-73
2023/12/07 06:00:18;;;;;;;;;;;103.20;2227.20;;;;;;5059191;28;19990;-73
2023/12/07 06:02:43;;;;;;;;;;;103.20;2227.20;;;;;;5064187;28;20282;-73
2023/12/07 06:05:09;;;;;;;;;;;103.20;2227.20;;;;;;5068434;28;19913;-73
2023/12/07 06:07:35;;;;;;;;;;;103.20;2227.20;;;;;;5061054;28;19920;-74
2023/12/07 06:10:01;;;;;;;;;;;103.20;2227.20;;;;;;5053538;28;19952;-73
2023/12/07 06:12:26;;;;;;;;;;;103.10;2227.20;;;;;;5071621;28;19917;-73
2023/12/07 06:14:52;;;;;;;;;;;103.10;2227.20;;;;;;5092376;28;19959;-72
2023/12/07 06:17:19;;;;;;;;;;;103.20;2227.20;;;;;;5085135;28;19924;-74
2023/12/07 06:19:45;;;;;;;;;;;103.10;2227.20;;;;;;5068852;28;19960;-73
2023/12/07 06:22:11;;;;;;;;;;;103.20;2227.20;;;;;;5070750;28;19955;-72
2023/12/07 06:24:36;;;;;;;;;;;103.10;2227.20;;;;;;5066391;28;20418;-72
2023/12/07 06:27:02;;;;;;;;;;;103.10;2227.20;;;;;;5070655;28;20387;-72
2023/12/07 06:29:29;;;;;;;;;;;103.00;2227.20;;;;;;5065537;28;19909;-72
2023/12/07 06:31:54;;;;;;;;;;;103.20;2227.20;;;;;;5071205;28;19920;-72
2023/12/07 06:34:20;;;;;;;;;;;103.10;2227.20;;;;;;5077209;28;19912;-72
2023/12/07 06:36:47;;;;;;;;;;;103.10;2227.20;;;;;;5082732;28;19920;-74
2023/12/07 06:39:13;;;;;;;;;;;103.10;2227.20;;;;;;5079036;28;19916;-74
2023/12/07 06:41:39;;;;;;;;;;;103.20;2227.20;;;;;;5076988;28;19920;-74
2023/12/07 06:44:04;;;;;;;;;;;103.20;2227.20;;;;;;5073609;28;19908;-74
2023/12/07 06:46:30;;;;;;;;;;;103.10;2227.20;;;;;;5064247;28;19944;-73
2023/12/07 06:48:55;;;;;;;;;;;103.20;2227.20;;;;;;5073363;28;19912;-73
2023/12/07 06:51:21;;;;;;;;;;;103.20;2227.20;;;;;;5070618;28;19916;-75
2023/12/07 06:53:47;;;;;;;;;;;103.30;2227.20;;;;;;5070075;28;19916;-74
2023/12/07 06:56:12;;;;;;;;;;;128.00;2252.80;;;;;;5070834;28;20348;-74
2023/12/07 06:58:38;;;;;;;;;;;103.30;2227.20;;;;;;5075538;28;20260;-75
2023/12/07 07:01:04;;;;;;;;;;;128.00;2252.80;;;;;;5073693;28;19944;-74
2023/12/07 07:03:29;;;;;;;;;;;128.00;2252.80;;;;;;5097212;28;20003;-74
2023/12/07 07:05:55;;;;;;;;;;;128.00;2252.80;;;;;;5079539;28;19908;-74
2023/12/07 07:08:20;;;;;;;;;;;128.00;2252.80;;;;;;5076613;28;19920;-75
2023/12/07 07:10:49;;;;;;;;;;;128.00;2252.80;;;;;;5078728;28;19944;-74
2023/12/07 07:13:16;;;;;;;;;;;128.00;2252.80;;;;;;5104242;27;19939;-74
2023/12/07 07:15:43;;;;;;;;;;;128.00;2252.80;;;;;;5074068;28;19908;-76
2023/12/07 07:18:09;;;;;;;;;;;128.00;2252.80;;;;;;5078062;28;19924;-75
2023/12/07 07:20:34;;;;;;;;;;;128.00;2252.80;;;;;;5082421;28;20375;-75
2023/12/07 07:23:00;;;;;;;;;;;128.10;2252.80;;;;;;5069739;28;19931;-75
2023/12/07 07:25:26;;;;;;;;;;;128.10;2252.80;;;;;;5075519;28;19913;-75
2023/12/07 07:27:54;;;;;;;;;;;128.10;2252.80;;;;;;5106011;27;19920;-75
2023/12/07 07:30:22;;;;;;;;;;;128.10;2252.80;;;;;;5076520;28;19920;-74
2023/12/07 07:32:48;;;;;;;;;;;128.10;2252.80;;;;;;5115586;27;20249;-75
2023/12/07 07:35:14;;;;;;;;;;;128.10;2252.80;;;;;;5088386;28;19927;-75
2023/12/07 07:37:41;;;;;;;;;;;128.20;2252.80;;;;;;5069291;28;19920;-76
2023/12/07 07:40:07;;;;;;;;;;;128.20;2252.80;;;;;;5078523;28;19935;-75
2023/12/07 07:42:33;;;;;;;;;;;128.20;2252.80;;;;;;5078768;28;20368;-76
2023/12/07 07:44:59;;;;;;;;;;;128.20;2252.80;;;;;;5074576;28;19915;-75
2023/12/07 07:47:24;;;;;;;;;;;128.30;2252.80;;;;;;5066099;28;19923;-75
2023/12/07 07:49:50;;;;;;;;;;;128.40;2252.80;;;;;;5109716;27;19927;-75
2023/12/07 07:52:15;;;;;;;;;;;128.40;2252.80;;;;;;5076686;28;19912;-76
2023/12/07 07:54:42;;;;;;;;;;;128.40;2252.80;;;;;;5070054;28;20276;-76
2023/12/07 07:57:07;;;;;;;;;;;128.40;2252.80;;;;;;5069044;28;19909;-75
2023/12/07 07:59:33;;;;;;;;;;;128.40;2252.80;;;;;;5097189;27;19942;-75
2023/12/07 08:01:58;;;;;;;;;;;128.40;2252.80;;;;;;5069054;28;19920;-76
2023/12/07 08:04:24;;;;;;;;;;;128.50;2252.80;;;;;;5073182;28;19912;-76
2023/12/07 08:06:50;;;;;;;;;;;128.60;2252.80;;;;;;5108271;27;19916;-77
2023/12/07 08:09:15;;;;;;;;;;;128.60;2252.80;;;;;;5080426;28;20261;-75
2023/12/07 08:11:41;;;;;;;;;;;128.50;2252.80;;;;;;5078344;28;19947;-75
2023/12/07 08:14:06;;;;;;;;;;;128.50;2252.80;;;;;;5071700;28;19934;-75
2023/12/07 08:16:32;;;;;;;;;;;128.50;2252.80;;;;;;5076784;28;19934;-75
2023/12/07 08:18:58;;;;;;;;;;;128.60;2252.80;;;;;;5087640;28;19923;-74
2023/12/07 08:21:25;;;;;;;;;;;128.60;2252.80;;;;;;5078092;28;20003;-75
2023/12/07 08:23:51;;;;;;;;;;;128.70;2252.80;;;;;;5108617;27;19944;-75
2023/12/07 08:26:17;;;;;;;;;;;128.70;2252.80;;;;;;5074496;28;19986;-75
2023/12/07 08:28:42;;;;;;;;;;;128.70;2252.80;;;;;;5078242;28;19913;-75
2023/12/07 08:31:08;;;;;;;;;;;128.80;2252.80;;;;;;5072068;28;20019;-75
2023/12/07 08:33:34;;;;;;;;;;;128.80;2252.80;;;;;;5073806;28;20007;-75
2023/12/07 08:36:00;;;;;;;;;;;128.90;2252.80;;;;;;5074181;28;20011;-75
2023/12/07 08:38:25;;;;;;;;;;;128.80;2252.80;;;;;;5099033;28;19927;-75
2023/12/07 08:40:51;;;;;;;;;;;128.90;2252.80;;;;;;5073993;28;19915;-75
2023/12/07 08:43:19;;;;;;;;;;;128.90;2252.80;;;;;;5073953;28;20407;-75
2023/12/07 08:45:45;;;;;;;;;;;128.90;2252.80;;;;;;5073659;28;19908;-75
2023/12/07 08:48:11;;;;;;;;;;;153.60;2252.80;;;;;;5072501;28;20003;-75
2023/12/07 08:50:37;;;;;;;;;;;153.70;2252.80;;;;;;5072317;28;20296;-75
2023/12/07 08:53:03;;;;;;;;;;;153.70;2252.80;;;;;;5072820;28;19909;-76
2023/12/07 08:55:29;;;;;;;;;;;153.70;2252.80;;;;;;5073637;28;20394;-75
2023/12/07 08:57:55;;;;;;;;;;;153.70;2252.80;;;;;;5072630;28;20379;-77
2023/12/07 09:00:23;;;;;;;;;;;153.70;2252.80;;;;;;5073443;28;19912;-76
2023/12/07 09:02:49;;;;;;;;;;;153.70;2252.80;;;;;;5073635;28;19915;-77
2023/12/07 09:05:15;;;;;;;;;;;153.70;2252.80;;;;;;5072271;28;19909;-75
2023/12/07 09:07:40;;;;;;;;;;;153.80;2252.80;;;;;;5073582;28;20383;-75
2023/12/07 09:10:08;;;;;;;;;;;153.80;2252.80;;;;;;5071865;28;19909;-74
2023/12/07 09:12:35;;;;;;;;;;;153.80;2252.80;;;;;;5073675;28;20345;-77
2023/12/07 09:15:02;;;;;;;;;;;153.80;2252.80;;;;;;5105618;28;19912;-76
2023/12/07 09:17:27;;;;;;;;;;;153.80;2252.80;;;;;;5082254;28;19977;-75
2023/12/07 09:19:55;;;;;;;;;;;153.80;2252.80;;;;;;5092741;28;20192;-75
2023/12/07 09:22:21;;;;;;;;;;;153.80;2252.80;;;;;;5093726;28;19951;-75
2023/12/07 09:24:46;;;;;;;;;;;153.80;2252.80;;;;;;5092480;28;19912;-75
2023/12/07 09:27:15;;;;;;;;;;;153.70;2252.80;;;;;;5093384;28;19908;-75
2023/12/07 09:29:41;;;;;;;;;;;153.80;2252.80;;;;;;5081247;28;19916;-74
2023/12/07 09:32:07;;;;;;;;;;;153.80;2252.80;;;;;;5082504;28;19919;-75
2023/12/07 09:34:33;;;;;;;;;;;153.80;2252.80;;;;;;5054643;28;19909;-76
2023/12/07 09:37:06;;;;;;;;;;;153.70;2252.80;;;;;;5072951;28;20360;-76
2023/12/07 09:39:31;;;;;;;;;;;153.80;2252.80;;;;;;5060201;28;19920;-76
2023/12/07 09:41:57;;;;;;;;;;;153.70;2252.80;;;;;;5086296;28;20271;-75
2023/12/07 09:44:22;;;;;;;;;;;153.70;2252.80;;;;;;5074499;28;19909;-77
2023/12/07 09:46:48;;;;;;;;;;;153.70;2252.80;;;;;;5080209;28;19920;-77
2023/12/07 09:49:13;;;;;;;;;;;153.70;2252.80;;;;;;5093461;28;19912;-77
2023/12/07 09:51:41;;;;;;;;;;;153.80;2252.80;;;;;;5093326;28;19908;-76
2023/12/07 09:54:08;;;;;;;;;;;153.70;2252.80;;;;;;5074905;28;19931;-77
2023/12/07 09:56:33;;;;;;;;;;;153.70;2252.80;;;;;;5075054;28;19951;-77
2023/12/07 09:58:59;;;;;;;;;;;153.70;2252.80;;;;;;5092941;28;20013;-76
2023/12/07 10:01:29;;;;;;;;;;;153.80;2252.80;;;;;;5075220;28;19915;-76
2023/12/07 10:04:13;;;;;;;;;;;153.90;2252.80;;;;;;5086486;28;19971;-76
2023/12/07 10:06:45;;;;;;;;;;;153.90;2252.80;;;;;;5073854;28;19923;-75
2023/12/07 10:09:11;;;;;;;;;;;153.90;2252.80;;;;;;5073180;28;20319;-76
2023/12/07 10:11:37;;;;;;;;;;;153.90;2252.80;;;;;;5072537;28;19916;-75
2023/12/07 10:14:02;;;;;;;;;;;154.10;2252.80;;;;;;5072456;28;20295;-75
2023/12/07 10:16:28;;;;;;;;;;;153.90;2252.80;;;;;;5074422;28;19961;-76
2023/12/07 10:18:54;;;;;;;;;;;153.90;2252.80;;;;;;5089382;28;21353;-76
2023/12/07 10:21:32;;;;;;;;;;;154.00;2252.80;;;;;;5068494;28;19913;-76
2023/12/07 10:23:57;;;;;;;;;;;154.00;2252.80;;;;;;5078920;28;19916;-76
2023/12/07 10:26:23;;;;;;;;;;;154.10;2252.80;;;;;;5069308;28;20006;-76
2023/12/07 10:28:53;;;;;;;;;;;154.10;2252.80;;;;;;5064529;28;20433;-76
2023/12/07 10:31:18;;;;;;;;;;;154.20;2252.80;;;;;;5047914;28;19923;-76
2023/12/07 10:33:48;;;;;;;;;;;154.20;2252.80;;;;;;5047997;28;19995;-74
2023/12/07 10:36:13;;;;;;;;;;;154.10;2252.80;;;;;;5070397;28;19913;-77
2023/12/07 10:38:41;;;;;;;;;;;154.10;2252.80;;;;;;5067409;28;19924;-75
2023/12/07 10:41:09;;;;;;;;;;;154.10;2252.80;;;;;;5076665;28;19913;-75
2023/12/07 10:43:36;;;;;;;;;;;154.10;2252.80;;;;;;5065135;28;19908;-75
2023/12/07 10:46:03;;;;;;;;;;;154.20;2252.80;;;;;;5058853;28;19916;-75
2023/12/07 10:48:31;;;;;;;;;;;154.10;2252.80;;;;;;5041651;28;20292;-76
2023/12/07 10:50:58;;;;;;;;;;;154.10;2252.80;;;;;;5074783;28;19920;-75
2023/12/07 10:53:27;;;;;;;;;;;154.10;2252.80;;;;;;5063819;28;19913;-75
2023/12/07 10:55:55;;;;;;;;;;;154.20;2252.80;;;;;;5047248;28;19912;-75
2023/12/07 10:58:22;;;;;;;;;;;154.20;2252.80;;;;;;5069560;28;19970;-75
2023/12/07 11:00:48;;;;;;;;;;;154.20;2252.80;;;;;;5063736;28;19916;-75
2023/12/07 11:03:20;;;;;;;;;;;154.20;2252.80;;;;;;5061612;28;19909;-75
2023/12/07 11:05:47;;;;;;;;;;;154.20;2252.80;;;;;;5067430;28;19912;-75
2023/12/07 11:08:18;;;;;;;;;;;154.30;2252.80;;;;;;5040381;28;19917;-75
2023/12/07 11:10:44;;;;;;;;;;;154.30;2252.80;;;;;;5075365;28;19935;-75
2023/12/07 11:13:16;;;;;;;;;;;154.30;2252.80;;;;;;5067079;28;20423;-75
2023/12/07 11:15:41;;;;;;;;;;;154.20;2252.80;;;;;;5079895;28;19921;-75
2023/12/07 11:18:07;;;;;;;;;;;154.10;2252.80;;;;;;5068536;28;19931;-75
2023/12/07 11:20:43;;;;;;;;;;;154.10;2252.80;;;;;;5084608;28;19919;-76
2023/12/07 11:23:09;;;;;;;;;;;154.10;2252.80;;;;;;5056981;28;19932;-75
2023/12/07 11:25:36;;;;;;;;;;;154.20;2252.80;;;;;;5068498;28;20019;-75
2023/12/07 11:28:03;;;;;;;;;;;154.30;2252.80;;;;;;5064592;28;19923;-75
2023/12/07 11:30:30;;;;;;;;;;;154.20;2252.80;;;;;;5070143;28;20257;-76
2023/12/07 11:32:56;;;;;;;;;;;154.20;2252.80;;;;;;5071088;28;19966;-77
2023/12/07 11:35:22;;;;;;;;;;;154.10;2252.80;;;;;;5074367;28;19912;-76
2023/12/07 11:38:01;;;;;;;;;;;154.10;2252.80;;;;;;5073799;28;19916;-75
2023/12/07 11:40:27;;;;;;;;;;;154.10;2252.80;;;;;;5071698;28;19962;-74
2023/12/07 11:42:53;;;;;;;;;;;154.00;2252.80;;;;;;5076744;28;19912;-77
2023/12/07 11:45:37;;;;;;;;;;;154.10;2252.80;;;;;;5073508;28;19912;-76
2023/12/07 11:48:06;;;;;;;;;;;154.10;2252.80;;;;;;5084426;28;19919;-76
2023/12/07 11:50:32;;;;;;;;;;;154.00;2252.80;;;;;;5077255;28;19916;-76
2023/12/07 11:52:59;;;;;;;;;;;153.90;2252.80;;;;;;5102088;28;19935;-76
2023/12/07 11:55:24;;;;;;;;;;;153.90;2252.80;;;;;;5068755;28;20280;-75
2023/12/07 11:57:50;;;;;;;;;;;154.00;2252.80;;;;;;5074222;28;19921;-74
2023/12/07 12:00:16;;;;;;;;;;;154.00;2252.80;;;;;;5078819;28;19919;-75
2023/12/07 12:02:42;;;;;;;;;;;154.00;2252.80;;;;;;5074259;28;19912;-76
2023/12/07 12:05:09;;;;;;;;;;;154.00;2252.80;;;;;;5070749;28;19908;-76
2023/12/07 12:07:35;;;;;;;;;;;154.00;2252.80;;;;;;5061389;28;19920;-76
2023/12/07 12:10:04;;;;;;;;;;;154.00;2252.80;;;;;;5070715;28;19912;-76
2023/12/07 12:12:32;;;;;;;;;;;153.90;2252.80;;;;;;5071812;28;20349;-75
2023/12/07 12:14:58;;;;;;;;;;;153.90;2252.80;;;;;;5065020;28;19912;-75
2023/12/07 12:17:24;;;;;;;;;;;153.90;2252.80;;;;;;5066492;28;20288;-75
2023/12/07 12:19:54;;;;;;;;;;;153.90;2252.80;;;;;;5079964;28;19962;-75
2023/12/07 12:22:20;;;;;;;;;;;153.90;2252.80;;;;;;5076408;28;19920;-75
2023/12/07 12:24:46;;;;;;;;;;;153.90;2252.80;;;;;;5071454;28;20007;-75
2023/12/07 12:27:13;;;;;;;;;;;153.90;2252.80;;;;;;5095743;28;20331;-75
2023/12/07 12:29:40;;;;;;;;;;;153.90;2252.80;;;;;;5106100;27;19913;-75
2023/12/07 12:32:06;;;;;;;;;;;154.00;2252.80;;;;;;5076038;28;19912;-75
2023/12/07 12:34:34;;;;;;;;;;;153.90;2252.80;;;;;;5103813;27;19913;-75
2023/12/07 12:37:00;;;;;;;;;;;153.90;2252.80;;;;;;5066849;28;20011;-75
2023/12/07 12:39:30;;;;;;;;;;;153.80;2252.80;;;;;;5069232;28;20011;-75
2023/12/07 12:41:57;;;;;;;;;;;153.80;2252.80;;;;;;5068811;28;19916;-76
2023/12/07 12:44:23;;;;;;;;;;;153.70;2252.80;;;;;;5075163;28;19991;-75
2023/12/07 12:46:48;;;;;;;;;;;153.70;2252.80;;;;;;5102840;28;19993;-75
2023/12/07 12:49:16;;;;;;;;;;;153.80;2252.80;;;;;;5080484;28;20396;-75
2023/12/07 12:51:44;;;;;;;;;;;153.80;2252.80;;;;;;5069242;28;20268;-75
2023/12/07 12:54:11;;;;;;;;;;;153.80;2252.80;;;;;;5079885;28;20376;-75
2023/12/07 12:56:36;;;;;;;;;;;153.90;2252.80;;;;;;5109332;27;20019;-75
2023/12/07 12:59:02;;;;;;;;;;;153.80;2252.80;;;;;;5063260;28;19929;-75
2023/12/07 13:01:27;;;;;;;;;;;153.80;2252.80;;;;;;5072807;28;20403;-74
2023/12/07 13:03:53;;;;;;;;;;;153.80;2252.80;;;;;;5079958;28;19908;-75
2023/12/07 13:06:19;;;;;;;;;;;153.80;2252.80;;;;;;5072443;28;19919;-76
2023/12/07 13:08:45;;;;;;;;;;;153.80;2252.80;;;;;;5062015;28;19974;-76
2023/12/07 13:11:20;;;;;;;;;;;153.90;2252.80;;;;;;5060307;28;19919;-75
2023/12/07 13:13:49;;;;;;;;;;;153.80;2252.80;;;;;;5071979;28;19987;-75
2023/12/07 13:16:16;;;;;;;;;;;153.90;2252.80;;;;;;5065778;28;19913;-76
2023/12/07 13:18:41;;;;;;;;;;;153.80;2252.80;;;;;;5067468;28;19928;-75
2023/12/07 13:21:09;;;;;;;;;;;153.70;2252.80;;;;;;5071496;28;20452;-75
2023/12/07 13:23:35;;;;;;;;;;;153.70;2252.80;;;;;;5108183;28;20352;-75
2023/12/07 13:26:01;;;;;;;;;;;153.70;2252.80;;;;;;5090677;28;19927;-75
2023/12/07 13:28:26;;;;;;;;;;;153.70;2252.80;;;;;;5104312;28;19908;-74
2023/12/07 13:30:53;;;;;;;;;;;153.70;2252.80;;;;;;5078027;28;19920;-74
2023/12/07 13:33:19;;;;;;;;;;;153.70;2252.80;;;;;;5069201;28;19912;-76
2023/12/07 13:35:45;;;;;;;;;;;153.70;2252.80;;;;;;5072083;28;19919;-74
2023/12/07 13:38:11;;;;;;;;;;;153.70;2252.80;;;;;;5063540;28;19921;-74